Amherst, NY

1:58 PM EDT on July 06, 2015 (GMT -0400)
Clarence Center | | Change Station
CLOSE
Current Station
Personal Weather Station
Location: Clarence Center, NY
Elevation: 620 ft
Nearby Weather Stations

Elev 620 ft 43.02 °N, 78.65 °W | Updated 20 seconds ago

Partly Cloudy
Partly Cloudy
84.2 °F
Feels Like 87 °F
N
2.7
Wind Variable Wind from East
Gusts 4.9 mph

Today
High -- | Low -- °F
--% Chance of Precip.
Yesterday
High -- | Low -- °F
Precip. -- in
5:42 AM 8:56 PM
Waning Gibbous, 73% visible
Pressure 30.03 in
Visibility 10.0 miles
Clouds Few 4200 ft
Few 14000 ft
Few 20000 ft
Few 26000 ft
Heat Index 87 °F
Dew Point 67 °F
Humidity 56%
Rainfall 0.00 in
Snow Depth Not available.
UV 4.0 out of 12
Pollen 4.50 out of 12
Air Quality Not available.
Flu Activity Not available.
METAR KBUF 061754Z 20007KT 10SM FEW042 FEW140 FEW200 FEW260 29/17 A3004 RMK AO2 SLP167 MDT CU DSNT S T02890172 10289 20206 58020

More Conditions Fewer Conditions

Pressure 30.03 in
Visibility 10.0 miles
Clouds Few 4200 ft
Few 14000 ft
Few 20000 ft
Few 26000 ft
Heat Index 87 °F
Dew Point 67 °F
Humidity 56%
Rainfall 0.00 in
Snow Depth Not available.
UV 4.0 out of 12
Pollen 4.50 out of 12
Air Quality Not available.
Flu Activity Not available.
METAR KBUF 061754Z 20007KT 10SM FEW042 FEW140 FEW200 FEW260 29/17 A3004 RMK AO2 SLP167 MDT CU DSNT S T02890172 10289 20206 58020

More Conditions Fewer Conditions

10-Day Weather Forecast

×

Almanac

Astronomy

Jul. 06, 2015 Rise Set
Actual Time
Civil Twilight
Nautical Twilight
Astronomical Twilight
Moon
Length of Visible Light
Length of Day
Tomorrow will be .
, % of the Moon is Illuminated

Today's Extremes

State Highs State Lows

Community

WunderPhotos

Upload Photos

1,835,607 photos uploaded!

WunderBlogs® & News

Nearby

Air Quality

  Air Quality AQ Index Pollutant
Not available.

Snow Depth

Station Depth Elevation

Earthquake Activity

City Distance Mag. Time & Date
Minimum magnitude displayed is 2.5.

Coastal Water Temperatures

Place Temperature

Stations

Nearby Weather Stations

Station Location Temp. Windchill Dew Point Humidity Wind Precip. Elev Updated Type